sensor_id;sensor_type;location;lat;lon;timestamp;P1;durP1;ratioP1;P2;durP2;ratioP2
70228;SDS011;57617;51.988;5.854;2023-05-19T00:01:26;7.07;;;4.00;;
70228;SDS011;57617;51.988;5.854;2023-05-19T00:03:53;11.07;;;4.50;;
70228;SDS011;57617;51.988;5.854;2023-05-19T00:06:28;11.38;;;4.63;;
70228;SDS011;57617;51.988;5.854;2023-05-19T00:11:25;13.30;;;4.90;;
70228;SDS011;57617;51.988;5.854;2023-05-19T00:13:52;12.57;;;5.18;;
70228;SDS011;57617;51.988;5.854;2023-05-19T00:16:18;10.68;;;4.75;;
70228;SDS011;57617;51.988;5.854;2023-05-19T00:18:44;10.23;;;4.07;;
70228;SDS011;57617;51.988;5.854;2023-05-19T00:21:11;9.27;;;4.82;;
70228;SDS011;57617;51.988;5.854;2023-05-19T00:23:36;10.52;;;4.80;;
70228;SDS011;57617;51.988;5.854;2023-05-19T00:26:02;9.90;;;4.40;;
70228;SDS011;57617;51.988;5.854;2023-05-19T00:28:27;9.85;;;4.85;;
70228;SDS011;57617;51.988;5.854;2023-05-19T00:30:52;10.40;;;4.50;;
70228;SDS011;57617;51.988;5.854;2023-05-19T00:33:17;14.80;;;4.85;;
70228;SDS011;57617;51.988;5.854;2023-05-19T00:35:43;13.18;;;5.05;;
70228;SDS011;57617;51.988;5.854;2023-05-19T00:38:08;12.13;;;4.82;;
70228;SDS011;57617;51.988;5.854;2023-05-19T00:40:34;10.52;;;4.53;;
70228;SDS011;57617;51.988;5.854;2023-05-19T00:43:00;12.25;;;4.90;;
70228;SDS011;57617;51.988;5.854;2023-05-19T00:45:26;11.98;;;4.70;;
70228;SDS011;57617;51.988;5.854;2023-05-19T00:47:51;12.48;;;4.88;;
70228;SDS011;57617;51.988;5.854;2023-05-19T00:50:17;10.23;;;4.60;;
70228;SDS011;57617;51.988;5.854;2023-05-19T00:52:42;10.63;;;4.47;;
70228;SDS011;57617;51.988;5.854;2023-05-19T00:55:07;14.23;;;4.82;;
70228;SDS011;57617;51.988;5.854;2023-05-19T00:57:34;8.18;;;4.60;;
70228;SDS011;57617;51.988;5.854;2023-05-19T01:00:00;12.57;;;4.63;;
70228;SDS011;57617;51.988;5.854;2023-05-19T01:02:25;10.70;;;4.53;;
70228;SDS011;57617;51.988;5.854;2023-05-19T01:04:53;10.95;;;4.53;;
70228;SDS011;57617;51.988;5.854;2023-05-19T01:07:21;15.00;;;4.80;;
70228;SDS011;57617;51.988;5.854;2023-05-19T01:09:47;12.55;;;4.30;;
70228;SDS011;57617;51.988;5.854;2023-05-19T01:12:13;11.50;;;4.80;;
70228;SDS011;57617;51.988;5.854;2023-05-19T01:14:39;10.90;;;4.57;;
70228;SDS011;57617;51.988;5.854;2023-05-19T01:17:24;9.30;;;4.70;;
70228;SDS011;57617;51.988;5.854;2023-05-19T01:25:46;10.20;;;4.65;;
70228;SDS011;57617;51.988;5.854;2023-05-19T01:31:05;12.38;;;4.90;;
70228;SDS011;57617;51.988;5.854;2023-05-19T01:33:33;9.48;;;4.53;;
70228;SDS011;57617;51.988;5.854;2023-05-19T01:36:02;11.52;;;4.78;;
70228;SDS011;57617;51.988;5.854;2023-05-19T01:38:29;10.35;;;4.63;;
70228;SDS011;57617;51.988;5.854;2023-05-19T01:40:57;13.45;;;4.97;;
70228;SDS011;57617;51.988;5.854;2023-05-19T01:43:25;12.93;;;5.18;;
70228;SDS011;57617;51.988;5.854;2023-05-19T01:45:51;12.60;;;5.10;;
70228;SDS011;57617;51.988;5.854;2023-05-19T01:48:17;13.52;;;5.20;;
70228;SDS011;57617;51.988;5.854;2023-05-19T01:50:43;13.43;;;4.57;;
70228;SDS011;57617;51.988;5.854;2023-05-19T01:53:08;14.95;;;5.30;;
70228;SDS011;57617;51.988;5.854;2023-05-19T01:55:35;10.65;;;4.85;;
70228;SDS011;57617;51.988;5.854;2023-05-19T01:58:15;15.52;;;5.00;;
70228;SDS011;57617;51.988;5.854;2023-05-19T02:06:02;13.50;;;5.05;;
70228;SDS011;57617;51.988;5.854;2023-05-19T02:09:01;9.13;;;4.78;;
70228;SDS011;57617;51.988;5.854;2023-05-19T02:14:19;16.00;;;5.53;;
70228;SDS011;57617;51.988;5.854;2023-05-19T02:16:48;12.02;;;5.10;;
70228;SDS011;57617;51.988;5.854;2023-05-19T02:21:46;12.43;;;5.30;;
70228;SDS011;57617;51.988;5.854;2023-05-19T02:24:11;13.35;;;4.95;;
70228;SDS011;57617;51.988;5.854;2023-05-19T02:26:37;18.98;;;5.05;;
70228;SDS011;57617;51.988;5.854;2023-05-19T02:29:02;11.27;;;5.18;;
70228;SDS011;57617;51.988;5.854;2023-05-19T02:31:27;14.93;;;5.32;;
70228;SDS011;57617;51.988;5.854;2023-05-19T02:33:53;12.48;;;5.20;;
70228;SDS011;57617;51.988;5.854;2023-05-19T02:36:18;17.23;;;5.97;;
70228;SDS011;57617;51.988;5.854;2023-05-19T02:38:43;14.20;;;5.82;;
70228;SDS011;57617;51.988;5.854;2023-05-19T02:41:08;15.90;;;6.13;;
70228;SDS011;57617;51.988;5.854;2023-05-19T02:43:34;16.65;;;5.50;;
70228;SDS011;57617;51.988;5.854;2023-05-19T02:46:00;12.95;;;5.32;;
70228;SDS011;57617;51.988;5.854;2023-05-19T02:48:25;14.70;;;5.90;;
70228;SDS011;57617;51.988;5.854;2023-05-19T02:50:50;17.45;;;6.30;;
70228;SDS011;57617;51.988;5.854;2023-05-19T02:53:15;13.70;;;6.10;;
70228;SDS011;57617;51.988;5.854;2023-05-19T02:55:41;14.82;;;6.20;;
70228;SDS011;57617;51.988;5.854;2023-05-19T02:58:06;16.58;;;6.03;;
70228;SDS011;57617;51.988;5.854;2023-05-19T03:00:31;16.00;;;5.70;;
70228;SDS011;57617;51.988;5.854;2023-05-19T03:02:57;12.77;;;6.03;;
70228;SDS011;57617;51.988;5.854;2023-05-19T03:05:26;13.52;;;6.10;;
70228;SDS011;57617;51.988;5.854;2023-05-19T03:07:51;15.25;;;5.95;;
70228;SDS011;57617;51.988;5.854;2023-05-19T03:10:17;13.00;;;5.85;;
70228;SDS011;57617;51.988;5.854;2023-05-19T03:12:42;15.70;;;6.30;;
70228;SDS011;57617;51.988;5.854;2023-05-19T03:15:07;17.48;;;6.25;;
70228;SDS011;57617;51.988;5.854;2023-05-19T03:17:33;15.07;;;5.90;;
70228;SDS011;57617;51.988;5.854;2023-05-19T03:20:00;13.25;;;6.00;;
70228;SDS011;57617;51.988;5.854;2023-05-19T03:22:25;20.55;;;6.88;;
70228;SDS011;57617;51.988;5.854;2023-05-19T03:24:51;14.05;;;5.97;;
70228;SDS011;57617;51.988;5.854;2023-05-19T03:27:18;17.88;;;6.88;;
70228;SDS011;57617;51.988;5.854;2023-05-19T03:29:43;16.10;;;6.10;;
70228;SDS011;57617;51.988;5.854;2023-05-19T03:32:08;16.60;;;7.27;;
70228;SDS011;57617;51.988;5.854;2023-05-19T03:34:33;16.70;;;6.57;;
70228;SDS011;57617;51.988;5.854;2023-05-19T03:36:59;15.73;;;6.05;;
70228;SDS011;57617;51.988;5.854;2023-05-19T03:39:24;15.75;;;6.78;;
70228;SDS011;57617;51.988;5.854;2023-05-19T03:41:50;12.50;;;6.15;;
70228;SDS011;57617;51.988;5.854;2023-05-19T03:44:15;12.98;;;5.88;;
70228;SDS011;57617;51.988;5.854;2023-05-19T03:46:40;14.05;;;5.88;;
70228;SDS011;57617;51.988;5.854;2023-05-19T03:49:06;15.48;;;5.90;;
70228;SDS011;57617;51.988;5.854;2023-05-19T03:51:31;16.05;;;6.03;;
70228;SDS011;57617;51.988;5.854;2023-05-19T03:53:58;16.20;;;6.57;;
70228;SDS011;57617;51.988;5.854;2023-05-19T03:56:23;15.38;;;6.28;;
70228;SDS011;57617;51.988;5.854;2023-05-19T03:58:51;16.42;;;6.57;;
70228;SDS011;57617;51.988;5.854;2023-05-19T04:01:18;12.23;;;5.93;;
70228;SDS011;57617;51.988;5.854;2023-05-19T04:03:44;17.23;;;6.63;;
70228;SDS011;57617;51.988;5.854;2023-05-19T04:06:09;13.90;;;5.93;;
70228;SDS011;57617;51.988;5.854;2023-05-19T04:08:34;15.45;;;6.30;;
70228;SDS011;57617;51.988;5.854;2023-05-19T04:11:00;15.77;;;6.63;;
70228;SDS011;57617;51.988;5.854;2023-05-19T04:13:25;20.83;;;6.43;;
70228;SDS011;57617;51.988;5.854;2023-05-19T04:15:50;14.70;;;5.80;;
70228;SDS011;57617;51.988;5.854;2023-05-19T04:18:16;13.77;;;6.38;;
70228;SDS011;57617;51.988;5.854;2023-05-19T04:20:41;17.35;;;7.00;;
70228;SDS011;57617;51.988;5.854;2023-05-19T04:23:06;14.88;;;6.43;;
70228;SDS011;57617;51.988;5.854;2023-05-19T04:25:32;15.20;;;6.22;;
70228;SDS011;57617;51.988;5.854;2023-05-19T04:27:59;18.17;;;6.50;;
70228;SDS011;57617;51.988;5.854;2023-05-19T04:30:25;17.70;;;6.07;;
70228;SDS011;57617;51.988;5.854;2023-05-19T04:32:52;15.13;;;5.90;;
70228;SDS011;57617;51.988;5.854;2023-05-19T04:35:17;14.55;;;6.07;;
70228;SDS011;57617;51.988;5.854;2023-05-19T04:37:43;12.32;;;5.80;;
70228;SDS011;57617;51.988;5.854;2023-05-19T04:40:10;14.98;;;6.35;;
70228;SDS011;57617;51.988;5.854;2023-05-19T04:42:36;18.40;;;6.53;;
70228;SDS011;57617;51.988;5.854;2023-05-19T04:45:05;15.80;;;6.38;;
70228;SDS011;57617;51.988;5.854;2023-05-19T04:47:32;15.18;;;6.35;;
70228;SDS011;57617;51.988;5.854;2023-05-19T04:50:00;14.00;;;6.10;;
70228;SDS011;57617;51.988;5.854;2023-05-19T04:52:26;15.95;;;6.32;;
70228;SDS011;57617;51.988;5.854;2023-05-19T04:54:51;17.83;;;6.18;;
70228;SDS011;57617;51.988;5.854;2023-05-19T04:57:17;15.55;;;5.65;;
70228;SDS011;57617;51.988;5.854;2023-05-19T04:59:42;14.27;;;6.30;;
70228;SDS011;57617;51.988;5.854;2023-05-19T05:02:07;14.60;;;5.75;;
70228;SDS011;57617;51.988;5.854;2023-05-19T05:04:34;14.05;;;5.97;;
70228;SDS011;57617;51.988;5.854;2023-05-19T05:06:59;13.65;;;5.90;;
70228;SDS011;57617;51.988;5.854;2023-05-19T05:09:25;13.05;;;6.03;;
70228;SDS011;57617;51.988;5.854;2023-05-19T05:11:50;11.90;;;5.90;;
70228;SDS011;57617;51.988;5.854;2023-05-19T05:14:16;17.17;;;6.28;;
70228;SDS011;57617;51.988;5.854;2023-05-19T05:16:41;11.20;;;5.47;;
70228;SDS011;57617;51.988;5.854;2023-05-19T05:19:07;12.93;;;5.60;;
70228;SDS011;57617;51.988;5.854;2023-05-19T05:21:33;15.35;;;5.40;;
70228;SDS011;57617;51.988;5.854;2023-05-19T05:23:58;12.10;;;5.68;;
70228;SDS011;57617;51.988;5.854;2023-05-19T05:26:27;13.30;;;6.00;;
70228;SDS011;57617;51.988;5.854;2023-05-19T05:28:55;12.48;;;5.38;;
70228;SDS011;57617;51.988;5.854;2023-05-19T05:31:20;11.23;;;5.53;;
70228;SDS011;57617;51.988;5.854;2023-05-19T05:33:46;18.27;;;5.80;;
70228;SDS011;57617;51.988;5.854;2023-05-19T05:36:11;14.63;;;5.63;;
70228;SDS011;57617;51.988;5.854;2023-05-19T05:38:37;12.93;;;6.13;;
70228;SDS011;57617;51.988;5.854;2023-05-19T05:41:02;11.75;;;5.97;;
70228;SDS011;57617;51.988;5.854;2023-05-19T05:43:28;12.25;;;5.78;;
70228;SDS011;57617;51.988;5.854;2023-05-19T05:45:55;11.18;;;5.50;;
70228;SDS011;57617;51.988;5.854;2023-05-19T05:48:21;14.18;;;5.85;;
70228;SDS011;57617;51.988;5.854;2023-05-19T05:50:47;12.70;;;5.95;;
70228;SDS011;57617;51.988;5.854;2023-05-19T05:53:16;11.40;;;5.50;;
70228;SDS011;57617;51.988;5.854;2023-05-19T05:55:43;15.30;;;6.38;;
70228;SDS011;57617;51.988;5.854;2023-05-19T05:58:12;12.02;;;5.50;;
70228;SDS011;57617;51.988;5.854;2023-05-19T06:00:38;15.88;;;5.28;;
70228;SDS011;57617;51.988;5.854;2023-05-19T06:03:07;12.35;;;5.50;;
70228;SDS011;57617;51.988;5.854;2023-05-19T06:05:33;17.08;;;5.90;;
70228;SDS011;57617;51.988;5.854;2023-05-19T06:07:59;12.55;;;5.63;;
70228;SDS011;57617;51.988;5.854;2023-05-19T06:10:24;14.23;;;4.95;;
70228;SDS011;57617;51.988;5.854;2023-05-19T06:12:50;12.90;;;5.00;;
70228;SDS011;57617;51.988;5.854;2023-05-19T06:15:15;10.60;;;4.93;;
70228;SDS011;57617;51.988;5.854;2023-05-19T06:17:40;10.93;;;5.10;;
70228;SDS011;57617;51.988;5.854;2023-05-19T06:20:06;15.02;;;4.80;;
70228;SDS011;57617;51.988;5.854;2023-05-19T06:22:32;14.38;;;5.25;;
70228;SDS011;57617;51.988;5.854;2023-05-19T06:24:58;12.30;;;4.60;;
70228;SDS011;57617;51.988;5.854;2023-05-19T06:27:23;11.50;;;4.88;;
70228;SDS011;57617;51.988;5.854;2023-05-19T06:29:48;14.05;;;5.10;;
70228;SDS011;57617;51.988;5.854;2023-05-19T06:32:14;11.65;;;3.92;;
70228;SDS011;57617;51.988;5.854;2023-05-19T06:34:39;9.52;;;4.40;;
70228;SDS011;57617;51.988;5.854;2023-05-19T06:37:05;13.48;;;4.38;;
70228;SDS011;57617;51.988;5.854;2023-05-19T06:39:30;10.40;;;3.70;;
70228;SDS011;57617;51.988;5.854;2023-05-19T06:41:56;8.13;;;3.75;;
70228;SDS011;57617;51.988;5.854;2023-05-19T06:44:21;9.52;;;3.75;;
70228;SDS011;57617;51.988;5.854;2023-05-19T06:46:46;11.30;;;3.65;;
70228;SDS011;57617;51.988;5.854;2023-05-19T06:49:12;8.57;;;3.17;;
70228;SDS011;57617;51.988;5.854;2023-05-19T06:51:37;14.00;;;3.38;;
70228;SDS011;57617;51.988;5.854;2023-05-19T06:54:02;10.57;;;3.20;;
70228;SDS011;57617;51.988;5.854;2023-05-19T06:56:27;7.32;;;2.92;;
70228;SDS011;57617;51.988;5.854;2023-05-19T06:58:53;8.90;;;3.00;;
70228;SDS011;57617;51.988;5.854;2023-05-19T07:01:18;10.68;;;3.05;;
70228;SDS011;57617;51.988;5.854;2023-05-19T07:03:43;10.13;;;2.65;;
70228;SDS011;57617;51.988;5.854;2023-05-19T07:06:09;4.97;;;2.40;;
70228;SDS011;57617;51.988;5.854;2023-05-19T07:08:34;8.77;;;2.50;;
70228;SDS011;57617;51.988;5.854;2023-05-19T07:11:01;7.38;;;2.60;;
70228;SDS011;57617;51.988;5.854;2023-05-19T07:13:26;6.57;;;2.75;;
70228;SDS011;57617;51.988;5.854;2023-05-19T07:15:51;11.48;;;2.58;;
70228;SDS011;57617;51.988;5.854;2023-05-19T07:18:19;5.65;;;2.70;;
70228;SDS011;57617;51.988;5.854;2023-05-19T07:20:45;7.38;;;2.20;;
70228;SDS011;57617;51.988;5.854;2023-05-19T07:23:10;9.27;;;2.22;;
70228;SDS011;57617;51.988;5.854;2023-05-19T07:25:36;6.50;;;2.22;;
70228;SDS011;57617;51.988;5.854;2023-05-19T07:28:01;5.50;;;2.13;;
70228;SDS011;57617;51.988;5.854;2023-05-19T07:30:27;8.38;;;2.63;;
70228;SDS011;57617;51.988;5.854;2023-05-19T07:32:52;8.13;;;2.17;;
70228;SDS011;57617;51.988;5.854;2023-05-19T07:35:19;7.18;;;1.92;;
70228;SDS011;57617;51.988;5.854;2023-05-19T07:37:46;5.75;;;2.10;;
70228;SDS011;57617;51.988;5.854;2023-05-19T07:40:12;6.70;;;2.05;;
70228;SDS011;57617;51.988;5.854;2023-05-19T07:42:37;6.55;;;2.40;;
70228;SDS011;57617;51.988;5.854;2023-05-19T07:45:03;5.03;;;2.00;;
70228;SDS011;57617;51.988;5.854;2023-05-19T07:47:29;5.45;;;1.98;;
70228;SDS011;57617;51.988;5.854;2023-05-19T07:49:54;6.43;;;2.28;;
70228;SDS011;57617;51.988;5.854;2023-05-19T07:52:20;8.43;;;2.17;;
70228;SDS011;57617;51.988;5.854;2023-05-19T07:54:45;7.25;;;2.35;;
70228;SDS011;57617;51.988;5.854;2023-05-19T07:57:10;7.90;;;2.63;;
70228;SDS011;57617;51.988;5.854;2023-05-19T07:59:36;5.88;;;2.20;;
70228;SDS011;57617;51.988;5.854;2023-05-19T08:02:01;30.98;;;5.00;;
70228;SDS011;57617;51.988;5.854;2023-05-19T08:04:26;9.32;;;2.25;;
70228;SDS011;57617;51.988;5.854;2023-05-19T08:06:52;6.97;;;2.28;;
70228;SDS011;57617;51.988;5.854;2023-05-19T08:09:18;4.93;;;2.20;;
70228;SDS011;57617;51.988;5.854;2023-05-19T08:11:44;10.15;;;2.40;;
70228;SDS011;57617;51.988;5.854;2023-05-19T08:14:10;7.78;;;2.50;;
70228;SDS011;57617;51.988;5.854;2023-05-19T08:16:36;7.47;;;2.50;;
70228;SDS011;57617;51.988;5.854;2023-05-19T08:19:01;5.75;;;2.50;;
70228;SDS011;57617;51.988;5.854;2023-05-19T08:21:30;10.38;;;2.72;;
70228;SDS011;57617;51.988;5.854;2023-05-19T08:23:58;5.55;;;2.05;;
70228;SDS011;57617;51.988;5.854;2023-05-19T08:26:25;13.70;;;2.42;;
70228;SDS011;57617;51.988;5.854;2023-05-19T08:28:51;7.63;;;2.47;;
70228;SDS011;57617;51.988;5.854;2023-05-19T08:31:16;5.40;;;2.45;;
70228;SDS011;57617;51.988;5.854;2023-05-19T08:33:42;5.30;;;2.25;;
70228;SDS011;57617;51.988;5.854;2023-05-19T08:36:08;7.80;;;2.08;;
70228;SDS011;57617;51.988;5.854;2023-05-19T08:38:33;8.00;;;2.47;;
70228;SDS011;57617;51.988;5.854;2023-05-19T08:40:59;9.25;;;2.33;;
70228;SDS011;57617;51.988;5.854;2023-05-19T08:43:25;9.93;;;2.08;;
70228;SDS011;57617;51.988;5.854;2023-05-19T08:45:51;6.28;;;1.83;;
70228;SDS011;57617;51.988;5.854;2023-05-19T08:48:18;5.85;;;1.83;;
70228;SDS011;57617;51.988;5.854;2023-05-19T08:50:45;7.40;;;2.20;;
70228;SDS011;57617;51.988;5.854;2023-05-19T08:53:21;7.97;;;2.10;;
70228;SDS011;57617;51.988;5.854;2023-05-19T08:58:19;6.78;;;2.20;;
70228;SDS011;57617;51.988;5.854;2023-05-19T09:00:46;9.95;;;2.78;;
70228;SDS011;57617;51.988;5.854;2023-05-19T09:03:12;7.25;;;1.90;;
70228;SDS011;57617;51.988;5.854;2023-05-19T09:05:39;7.07;;;1.88;;
70228;SDS011;57617;51.988;5.854;2023-05-19T09:08:05;8.88;;;2.00;;
70228;SDS011;57617;51.988;5.854;2023-05-19T09:10:30;7.13;;;1.98;;
70228;SDS011;57617;51.988;5.854;2023-05-19T09:12:56;6.43;;;1.95;;
70228;SDS011;57617;51.988;5.854;2023-05-19T09:15:21;6.10;;;2.05;;
70228;SDS011;57617;51.988;5.854;2023-05-19T09:17:54;6.50;;;2.22;;
70228;SDS011;57617;51.988;5.854;2023-05-19T09:20:30;10.98;;;2.30;;
70228;SDS011;57617;51.988;5.854;2023-05-19T09:22:55;9.68;;;2.50;;
70228;SDS011;57617;51.988;5.854;2023-05-19T09:25:21;8.40;;;2.42;;
70228;SDS011;57617;51.988;5.854;2023-05-19T09:27:47;8.30;;;2.40;;
70228;SDS011;57617;51.988;5.854;2023-05-19T09:30:14;5.82;;;1.88;;
70228;SDS011;57617;51.988;5.854;2023-05-19T09:32:43;8.32;;;2.30;;
70228;SDS011;57617;51.988;5.854;2023-05-19T09:35:09;9.30;;;2.13;;
70228;SDS011;57617;51.988;5.854;2023-05-19T09:37:40;6.10;;;2.33;;
70228;SDS011;57617;51.988;5.854;2023-05-19T09:40:08;6.90;;;2.08;;
70228;SDS011;57617;51.988;5.854;2023-05-19T09:42:37;7.45;;;2.30;;
70228;SDS011;57617;51.988;5.854;2023-05-19T09:45:03;5.38;;;2.08;;
70228;SDS011;57617;51.988;5.854;2023-05-19T09:47:37;6.30;;;2.20;;
70228;SDS011;57617;51.988;5.854;2023-05-19T09:50:04;7.40;;;2.35;;
70228;SDS011;57617;51.988;5.854;2023-05-19T09:52:30;6.18;;;2.10;;
70228;SDS011;57617;51.988;5.854;2023-05-19T09:54:59;7.50;;;2.13;;
70228;SDS011;57617;51.988;5.854;2023-05-19T09:57:26;8.40;;;2.25;;
70228;SDS011;57617;51.988;5.854;2023-05-19T09:59:53;6.60;;;1.90;;
70228;SDS011;57617;51.988;5.854;2023-05-19T10:02:20;7.78;;;2.05;;
70228;SDS011;57617;51.988;5.854;2023-05-19T10:04:48;7.07;;;1.80;;
70228;SDS011;57617;51.988;5.854;2023-05-19T10:07:14;10.93;;;2.17;;
70228;SDS011;57617;51.988;5.854;2023-05-19T10:09:41;7.07;;;1.90;;
70228;SDS011;57617;51.988;5.854;2023-05-19T10:12:08;5.13;;;2.10;;
70228;SDS011;57617;51.988;5.854;2023-05-19T10:14:35;7.68;;;2.30;;
70228;SDS011;57617;51.988;5.854;2023-05-19T10:17:01;6.60;;;2.00;;
70228;SDS011;57617;51.988;5.854;2023-05-19T10:19:27;5.75;;;2.00;;
70228;SDS011;57617;51.988;5.854;2023-05-19T10:21:53;6.60;;;2.40;;
70228;SDS011;57617;51.988;5.854;2023-05-19T10:24:19;8.65;;;2.35;;
70228;SDS011;57617;51.988;5.854;2023-05-19T10:26:55;5.70;;;2.13;;
70228;SDS011;57617;51.988;5.854;2023-05-19T10:29:27;6.95;;;2.05;;
70228;SDS011;57617;51.988;5.854;2023-05-19T10:31:56;6.90;;;2.30;;
70228;SDS011;57617;51.988;5.854;2023-05-19T10:34:34;7.60;;;2.40;;
70228;SDS011;57617;51.988;5.854;2023-05-19T10:40:15;5.45;;;2.22;;
70228;SDS011;57617;51.988;5.854;2023-05-19T10:45:31;6.22;;;2.15;;
70228;SDS011;57617;51.988;5.854;2023-05-19T10:48:04;5.20;;;2.15;;
70228;SDS011;57617;51.988;5.854;2023-05-19T10:50:34;6.30;;;2.40;;
70228;SDS011;57617;51.988;5.854;2023-05-19T10:53:01;7.45;;;2.10;;
70228;SDS011;57617;51.988;5.854;2023-05-19T10:58:12;6.95;;;2.75;;
70228;SDS011;57617;51.988;5.854;2023-05-19T11:00:37;7.28;;;2.30;;
70228;SDS011;57617;51.988;5.854;2023-05-19T11:03:13;6.25;;;2.40;;
70228;SDS011;57617;51.988;5.854;2023-05-19T11:05:39;5.63;;;2.30;;
70228;SDS011;57617;51.988;5.854;2023-05-19T11:08:05;7.57;;;2.22;;
70228;SDS011;57617;51.988;5.854;2023-05-19T11:10:35;5.95;;;2.17;;
70228;SDS011;57617;51.988;5.854;2023-05-19T11:13:00;6.47;;;2.20;;
70228;SDS011;57617;51.988;5.854;2023-05-19T11:15:28;7.00;;;2.42;;
70228;SDS011;57617;51.988;5.854;2023-05-19T11:17:58;5.05;;;2.42;;
70228;SDS011;57617;51.988;5.854;2023-05-19T11:20:26;5.97;;;2.40;;
70228;SDS011;57617;51.988;5.854;2023-05-19T11:25:40;7.22;;;2.22;;
70228;SDS011;57617;51.988;5.854;2023-05-19T11:28:17;6.05;;;2.22;;
70228;SDS011;57617;51.988;5.854;2023-05-19T11:30:44;4.75;;;2.30;;
70228;SDS011;57617;51.988;5.854;2023-05-19T11:33:11;8.27;;;2.47;;
70228;SDS011;57617;51.988;5.854;2023-05-19T11:35:37;7.43;;;2.40;;
70228;SDS011;57617;51.988;5.854;2023-05-19T11:38:04;6.03;;;2.25;;
70228;SDS011;57617;51.988;5.854;2023-05-19T11:40:30;6.60;;;2.28;;
70228;SDS011;57617;51.988;5.854;2023-05-19T11:42:56;5.93;;;2.13;;
70228;SDS011;57617;51.988;5.854;2023-05-19T11:45:24;7.07;;;2.38;;
70228;SDS011;57617;51.988;5.854;2023-05-19T11:47:50;4.68;;;2.45;;
70228;SDS011;57617;51.988;5.854;2023-05-19T11:50:16;5.22;;;2.40;;
70228;SDS011;57617;51.988;5.854;2023-05-19T11:52:44;6.30;;;2.30;;
70228;SDS011;57617;51.988;5.854;2023-05-19T11:55:21;8.70;;;2.30;;
70228;SDS011;57617;51.988;5.854;2023-05-19T12:00:26;8.57;;;2.95;;
70228;SDS011;57617;51.988;5.854;2023-05-19T12:02:55;7.63;;;2.88;;
70228;SDS011;57617;51.988;5.854;2023-05-19T12:05:22;5.38;;;2.30;;
70228;SDS011;57617;51.988;5.854;2023-05-19T12:07:51;6.28;;;2.50;;
70228;SDS011;57617;51.988;5.854;2023-05-19T12:10:26;6.30;;;2.40;;
70228;SDS011;57617;51.988;5.854;2023-05-19T12:12:53;6.60;;;2.25;;
70228;SDS011;57617;51.988;5.854;2023-05-19T12:15:21;6.82;;;2.28;;
70228;SDS011;57617;51.988;5.854;2023-05-19T12:17:57;8.23;;;2.63;;
70228;SDS011;57617;51.988;5.854;2023-05-19T12:20:24;9.52;;;2.42;;
70228;SDS011;57617;51.988;5.854;2023-05-19T12:22:51;8.02;;;2.70;;
70228;SDS011;57617;51.988;5.854;2023-05-19T12:25:17;7.43;;;2.80;;
70228;SDS011;57617;51.988;5.854;2023-05-19T12:27:43;6.90;;;2.40;;
70228;SDS011;57617;51.988;5.854;2023-05-19T12:30:08;8.15;;;2.30;;
70228;SDS011;57617;51.988;5.854;2023-05-19T12:32:35;4.18;;;2.33;;
70228;SDS011;57617;51.988;5.854;2023-05-19T12:35:01;11.15;;;2.70;;
70228;SDS011;57617;51.988;5.854;2023-05-19T12:37:31;6.70;;;2.33;;
70228;SDS011;57617;51.988;5.854;2023-05-19T12:40:00;7.03;;;3.20;;
70228;SDS011;57617;51.988;5.854;2023-05-19T12:42:28;5.47;;;2.22;;
70228;SDS011;57617;51.988;5.854;2023-05-19T12:44:58;6.70;;;2.50;;
70228;SDS011;57617;51.988;5.854;2023-05-19T12:47:31;6.95;;;2.75;;
70228;SDS011;57617;51.988;5.854;2023-05-19T12:52:23;9.68;;;2.60;;
70228;SDS011;57617;51.988;5.854;2023-05-19T12:54:49;5.70;;;2.60;;
70228;SDS011;57617;51.988;5.854;2023-05-19T12:57:25;8.48;;;2.83;;
70228;SDS011;57617;51.988;5.854;2023-05-19T12:59:51;6.10;;;2.60;;
70228;SDS011;57617;51.988;5.854;2023-05-19T13:02:17;9.77;;;2.78;;
70228;SDS011;57617;51.988;5.854;2023-05-19T13:04:43;7.82;;;2.83;;
70228;SDS011;57617;51.988;5.854;2023-05-19T13:07:08;8.00;;;2.47;;
70228;SDS011;57617;51.988;5.854;2023-05-19T13:09:33;6.47;;;2.55;;
70228;SDS011;57617;51.988;5.854;2023-05-19T13:12:00;6.82;;;2.53;;
70228;SDS011;57617;51.988;5.854;2023-05-19T13:14:25;4.95;;;2.42;;
70228;SDS011;57617;51.988;5.854;2023-05-19T13:16:50;5.93;;;2.80;;
70228;SDS011;57617;51.988;5.854;2023-05-19T13:19:16;7.45;;;2.83;;
70228;SDS011;57617;51.988;5.854;2023-05-19T13:21:43;6.80;;;2.78;;
70228;SDS011;57617;51.988;5.854;2023-05-19T13:24:11;6.95;;;2.67;;
70228;SDS011;57617;51.988;5.854;2023-05-19T13:26:36;10.60;;;3.00;;
70228;SDS011;57617;51.988;5.854;2023-05-19T13:29:02;7.20;;;2.80;;
70228;SDS011;57617;51.988;5.854;2023-05-19T13:31:28;4.70;;;2.50;;
70228;SDS011;57617;51.988;5.854;2023-05-19T13:33:53;6.53;;;2.83;;
70228;SDS011;57617;51.988;5.854;2023-05-19T13:36:18;6.55;;;2.50;;
70228;SDS011;57617;51.988;5.854;2023-05-19T13:38:43;6.88;;;2.92;;
70228;SDS011;57617;51.988;5.854;2023-05-19T13:41:09;9.00;;;2.80;;
70228;SDS011;57617;51.988;5.854;2023-05-19T13:43:34;9.20;;;2.70;;
70228;SDS011;57617;51.988;5.854;2023-05-19T13:45:59;8.57;;;2.75;;
70228;SDS011;57617;51.988;5.854;2023-05-19T13:48:25;8.00;;;2.97;;
70228;SDS011;57617;51.988;5.854;2023-05-19T13:50:50;9.02;;;2.75;;
70228;SDS011;57617;51.988;5.854;2023-05-19T13:53:18;5.65;;;2.50;;
70228;SDS011;57617;51.988;5.854;2023-05-19T13:55:43;7.05;;;2.40;;
70228;SDS011;57617;51.988;5.854;2023-05-19T13:58:08;8.10;;;3.13;;
70228;SDS011;57617;51.988;5.854;2023-05-19T14:00:35;6.57;;;2.65;;
70228;SDS011;57617;51.988;5.854;2023-05-19T14:03:00;9.13;;;2.95;;
70228;SDS011;57617;51.988;5.854;2023-05-19T14:05:26;6.70;;;2.10;;
70228;SDS011;57617;51.988;5.854;2023-05-19T14:07:52;7.40;;;2.38;;
70228;SDS011;57617;51.988;5.854;2023-05-19T14:10:18;6.63;;;2.80;;
70228;SDS011;57617;51.988;5.854;2023-05-19T14:12:43;7.65;;;2.25;;
70228;SDS011;57617;51.988;5.854;2023-05-19T14:15:09;7.93;;;2.50;;
70228;SDS011;57617;51.988;5.854;2023-05-19T14:17:34;7.22;;;2.45;;
70228;SDS011;57617;51.988;5.854;2023-05-19T14:20:00;5.15;;;2.28;;
70228;SDS011;57617;51.988;5.854;2023-05-19T14:22:25;5.30;;;2.30;;
70228;SDS011;57617;51.988;5.854;2023-05-19T14:24:51;5.80;;;2.40;;
70228;SDS011;57617;51.988;5.854;2023-05-19T14:27:16;5.75;;;2.10;;
70228;SDS011;57617;51.988;5.854;2023-05-19T14:29:41;5.15;;;2.20;;
70228;SDS011;57617;51.988;5.854;2023-05-19T14:32:07;5.15;;;2.08;;
70228;SDS011;57617;51.988;5.854;2023-05-19T14:34:32;5.80;;;2.70;;
70228;SDS011;57617;51.988;5.854;2023-05-19T14:36:59;6.25;;;2.10;;
70228;SDS011;57617;51.988;5.854;2023-05-19T14:39:24;7.65;;;2.38;;
70228;SDS011;57617;51.988;5.854;2023-05-19T14:41:50;12.07;;;2.50;;
70228;SDS011;57617;51.988;5.854;2023-05-19T14:44:16;7.90;;;2.40;;
70228;SDS011;57617;51.988;5.854;2023-05-19T14:46:42;9.23;;;2.20;;
70228;SDS011;57617;51.988;5.854;2023-05-19T14:49:07;7.25;;;2.30;;
70228;SDS011;57617;51.988;5.854;2023-05-19T14:51:32;6.47;;;2.40;;
70228;SDS011;57617;51.988;5.854;2023-05-19T14:53:58;8.73;;;2.83;;
70228;SDS011;57617;51.988;5.854;2023-05-19T14:56:24;4.93;;;2.20;;
70228;SDS011;57617;51.988;5.854;2023-05-19T14:58:50;6.40;;;2.20;;
70228;SDS011;57617;51.988;5.854;2023-05-19T15:01:15;6.25;;;2.35;;
70228;SDS011;57617;51.988;5.854;2023-05-19T15:03:40;5.43;;;2.20;;
70228;SDS011;57617;51.988;5.854;2023-05-19T15:06:09;5.65;;;2.47;;
70228;SDS011;57617;51.988;5.854;2023-05-19T15:08:34;5.63;;;2.40;;
70228;SDS011;57617;51.988;5.854;2023-05-19T15:11:01;6.10;;;2.20;;
70228;SDS011;57617;51.988;5.854;2023-05-19T15:13:27;7.28;;;2.45;;
70228;SDS011;57617;51.988;5.854;2023-05-19T15:15:53;7.68;;;2.78;;
70228;SDS011;57617;51.988;5.854;2023-05-19T15:18:19;7.10;;;2.53;;